Sacramento, California
Traffic Map
Current Weather Conditions
Sacramento, California
Broken Clouds
Broken Clouds
13°
Feels Like: 13°
Wind Chill: 13° Ceiling: 4100
Heat Index: 13° Visibility: 10mi
Dew Point: 12° Wind: 6mph
Humidity: 94% Direction: 180° (S)
Pressure: 29.71in Gusts: 0mph
Raw Report DataKSAC 010903Z AUTO 18005KT 10SM FEW007 SCT032 BKN041 13/12 A2971 RMK AO2
Traffic Incident Summary
Active as of:
Severity:
Category:
InformationThere was an issue retrieving the traffic information for this location. Please try a different location or try again shortly.
Advertisements
Track Severe Weather on mobile